Time;durP1;ratioP1;P1;durP2;ratioP2;P2;SDS_P1;SDS_P2;PMS_P1;PMS_P2;Temp;Humidity;BMP_temperature;BMP_pressure;BME280_temperature;BME280_humidity;BME280_pressure;Samples;Min_cycle;Max_cycle;Signal;HPM_P1;HPM_P2
2023/04/19 00:02:18;;;;;;;1.90;1.80;;;;;;;;;;5076157;28;20123;-87
2023/04/19 00:04:44;;;;;;;3.40;2.10;;;;;;;;;;5059743;28;20028;-86
2023/04/19 00:07:09;;;;;;;2.20;2.00;;;;;;;;;;5075592;28;20032;-85
2023/04/19 00:09:35;;;;;;;2.00;1.80;;;;;;;;;;5058830;28;20048;-85
2023/04/19 00:12:01;;;;;;;3.80;2.08;;;;;;;;;;5058981;28;20435;-85
2023/04/19 00:14:27;;;;;;;2.38;2.08;;;;;;;;;;5075735;28;20470;-86
2023/04/19 00:16:52;;;;;;;2.72;2.03;;;;;;;;;;5075475;28;20031;-86
2023/04/19 00:19:18;;;;;;;2.67;2.05;;;;;;;;;;5075598;28;20052;-86
2023/04/19 00:21:43;;;;;;;2.33;2.10;;;;;;;;;;5075189;28;20031;-85
2023/04/19 00:24:08;;;;;;;2.22;2.00;;;;;;;;;;5093486;28;20038;-86
2023/04/19 00:26:34;;;;;;;2.72;2.22;;;;;;;;;;5075571;28;20038;-86
2023/04/19 00:28:59;;;;;;;2.15;1.95;;;;;;;;;;5075263;28;20397;-88
2023/04/19 00:31:25;;;;;;;1.90;1.80;;;;;;;;;;5075529;28;20028;-87
2023/04/19 00:33:50;;;;;;;3.85;2.00;;;;;;;;;;5075813;28;20477;-87
2023/04/19 00:36:15;;;;;;;2.22;2.03;;;;;;;;;;5093863;28;20024;-86
2023/04/19 00:38:41;;;;;;;2.10;1.90;;;;;;;;;;5075597;28;20028;-86
2023/04/19 00:41:06;;;;;;;2.22;2.03;;;;;;;;;;5093355;28;20042;-86
2023/04/19 00:43:32;;;;;;;3.35;2.08;;;;;;;;;;5058889;28;20034;-86
2023/04/19 00:45:57;;;;;;;2.67;2.03;;;;;;;;;;5058489;28;20081;-86
2023/04/19 00:48:22;;;;;;;2.20;2.00;;;;;;;;;;5075288;28;20028;-85
2023/04/19 00:50:48;;;;;;;2.83;2.00;;;;;;;;;;5058637;28;20040;-86
2023/04/19 00:53:15;;;;;;;2.20;2.00;;;;;;;;;;5058897;28;20036;-86
2023/04/19 00:55:41;;;;;;;2.30;2.05;;;;;;;;;;5075486;28;20459;-86
2023/04/19 00:58:07;;;;;;;3.38;2.17;;;;;;;;;;5075486;28;20028;-86
2023/04/19 01:00:34;;;;;;;2.30;2.10;;;;;;;;;;5075660;28;20056;-86
2023/04/19 01:02:59;;;;;;;2.50;2.30;;;;;;;;;;5075163;28;20028;-85
2023/04/19 01:05:25;;;;;;;2.47;2.15;;;;;;;;;;5075355;28;20024;-86
2023/04/19 01:07:50;;;;;;;2.85;2.08;;;;;;;;;;5058114;28;20032;-86
2023/04/19 01:10:16;;;;;;;3.70;1.92;;;;;;;;;;5058321;28;20116;-85
2023/04/19 01:12:42;;;;;;;2.80;1.90;;;;;;;;;;5058373;28;20493;-85
2023/04/19 01:15:08;;;;;;;2.40;2.20;;;;;;;;;;5075091;28;20055;-86
2023/04/19 01:17:33;;;;;;;2.88;2.40;;;;;;;;;;5074893;28;20035;-86
2023/04/19 01:19:59;;;;;;;2.58;2.17;;;;;;;;;;5058468;28;20055;-85
2023/04/19 01:22:25;;;;;;;2.83;2.40;;;;;;;;;;5040437;28;20037;-86
2023/04/19 01:24:50;;;;;;;2.33;2.10;;;;;;;;;;5055095;28;20032;-86
2023/04/19 01:27:16;;;;;;;2.13;2.00;;;;;;;;;;5054943;28;20059;-86
2023/04/19 01:29:42;;;;;;;3.15;2.47;;;;;;;;;;5054943;28;20024;-86
2023/04/19 01:32:07;;;;;;;2.47;2.28;;;;;;;;;;5055115;28;20052;-86
2023/04/19 01:34:33;;;;;;;2.65;2.45;;;;;;;;;;5040261;28;20040;-86
2023/04/19 01:36:58;;;;;;;2.40;2.20;;;;;;;;;;5025436;28;20395;-86
2023/04/19 01:39:24;;;;;;;2.83;2.55;;;;;;;;;;5058630;28;20039;-86
2023/04/19 01:41:50;;;;;;;2.33;2.13;;;;;;;;;;5058509;28;20482;-86
2023/04/19 01:44:15;;;;;;;2.85;2.38;;;;;;;;;;5076323;28;20059;-87
2023/04/19 01:46:41;;;;;;;2.40;2.20;;;;;;;;;;5041806;28;20123;-86
2023/04/19 01:49:07;;;;;;;2.40;2.20;;;;;;;;;;5076255;28;20074;-86
2023/04/19 01:51:33;;;;;;;3.13;2.40;;;;;;;;;;5076581;28;20032;-86
2023/04/19 01:53:58;;;;;;;2.50;2.30;;;;;;;;;;5059266;28;20433;-86
2023/04/19 01:56:23;;;;;;;3.33;2.20;;;;;;;;;;5077806;28;20031;-87
2023/04/19 01:58:49;;;;;;;3.20;2.60;;;;;;;;;;5081948;28;20051;-87
2023/04/19 02:01:15;;;;;;;3.15;2.70;;;;;;;;;;5064852;28;20516;-87
2023/04/19 02:03:40;;;;;;;3.95;2.50;;;;;;;;;;5082918;28;20028;-86
2023/04/19 02:06:12;;;;;;;3.08;2.63;;;;;;;;;;5064183;28;20039;-87
2023/04/19 02:08:38;;;;;;;2.25;2.08;;;;;;;;;;5063325;28;20056;-86
2023/04/19 02:11:09;;;;;;;2.90;2.60;;;;;;;;;;5078867;28;20032;-86
2023/04/19 02:13:34;;;;;;;3.00;2.38;;;;;;;;;;5061035;28;20107;-86
2023/04/19 02:16:01;;;;;;;2.78;2.58;;;;;;;;;;5062011;28;20509;-86
2023/04/19 02:18:28;;;;;;;3.80;2.65;;;;;;;;;;5079124;28;20047;-86
2023/04/19 02:20:54;;;;;;;2.78;2.58;;;;;;;;;;5077791;28;20486;-86
2023/04/19 02:23:20;;;;;;;4.18;2.70;;;;;;;;;;5026119;28;20055;-86
2023/04/19 02:25:45;;;;;;;2.63;2.42;;;;;;;;;;5076282;28;20467;-86
2023/04/19 02:28:11;;;;;;;2.58;2.10;;;;;;;;;;5058449;28;20071;-86
2023/04/19 02:30:36;;;;;;;2.40;2.20;;;;;;;;;;5076275;28;20028;-86
2023/04/19 02:33:01;;;;;;;2.78;2.50;;;;;;;;;;5057632;28;20082;-87
2023/04/19 02:35:27;;;;;;;2.70;2.47;;;;;;;;;;5057602;28;20137;-86
2023/04/19 02:37:52;;;;;;;3.25;2.78;;;;;;;;;;5058241;28;20042;-86
2023/04/19 02:40:18;;;;;;;3.60;2.65;;;;;;;;;;5041207;28;20036;-86
2023/04/19 02:42:43;;;;;;;3.90;2.67;;;;;;;;;;5075290;28;20127;-86
2023/04/19 02:45:09;;;;;;;3.60;2.53;;;;;;;;;;5040527;28;20036;-86
2023/04/19 02:47:34;;;;;;;4.43;2.78;;;;;;;;;;5058369;28;20475;-86
2023/04/19 02:50:00;;;;;;;2.53;2.33;;;;;;;;;;5075145;28;20028;-86
2023/04/19 02:52:26;;;;;;;2.95;2.60;;;;;;;;;;5075508;28;20032;-85
2023/04/19 02:54:52;;;;;;;2.72;2.33;;;;;;;;;;5057790;28;20359;-85
2023/04/19 02:57:17;;;;;;;4.05;2.72;;;;;;;;;;5057471;28;20036;-86
2023/04/19 02:59:43;;;;;;;3.15;2.70;;;;;;;;;;5057192;28;20082;-86
2023/04/19 03:02:08;;;;;;;2.50;2.30;;;;;;;;;;5040703;28;20541;-86
2023/04/19 03:04:35;;;;;;;2.80;2.50;;;;;;;;;;5040337;28;20039;-86
2023/04/19 03:07:00;;;;;;;3.33;2.55;;;;;;;;;;5040453;28;20036;-86
2023/04/19 03:09:26;;;;;;;2.85;2.47;;;;;;;;;;5040048;28;20048;-86
2023/04/19 03:11:52;;;;;;;2.83;2.50;;;;;;;;;;5057169;28;20067;-86
2023/04/19 03:14:17;;;;;;;2.90;2.35;;;;;;;;;;5040965;28;20077;-86
2023/04/19 03:16:42;;;;;;;2.42;2.20;;;;;;;;;;5075887;28;20040;-86
2023/04/19 03:19:08;;;;;;;3.58;2.42;;;;;;;;;;5060646;28;20039;-86
2023/04/19 03:21:33;;;;;;;3.92;2.50;;;;;;;;;;5044626;28;20044;-86
2023/04/19 03:24:00;;;;;;;3.60;2.70;;;;;;;;;;5077082;28;20028;-87
2023/04/19 03:26:25;;;;;;;2.80;2.08;;;;;;;;;;5063063;28;20028;-85
2023/04/19 03:28:51;;;;;;;4.53;2.70;;;;;;;;;;5091549;28;20039;-85
2023/04/19 03:31:17;;;;;;;5.68;2.78;;;;;;;;;;5065513;28;20071;-86
2023/04/19 03:33:42;;;;;;;2.95;2.28;;;;;;;;;;5025005;28;20410;-85
2023/04/19 03:36:08;;;;;;;2.58;2.38;;;;;;;;;;5057205;28;20082;-86
2023/04/19 03:38:33;;;;;;;3.63;2.15;;;;;;;;;;5056411;28;20039;-86
2023/04/19 03:40:58;;;;;;;3.00;2.60;;;;;;;;;;5074446;28;20116;-87
2023/04/19 03:43:24;;;;;;;3.03;2.50;;;;;;;;;;5056512;28;20471;-86
2023/04/19 03:45:49;;;;;;;2.65;2.25;;;;;;;;;;5056381;28;20063;-86
2023/04/19 03:48:15;;;;;;;5.28;2.65;;;;;;;;;;5039481;28;20036;-83
2023/04/19 03:50:40;;;;;;;3.22;2.70;;;;;;;;;;5022994;28;20024;-84
2023/04/19 03:53:05;;;;;;;3.00;2.60;;;;;;;;;;5056853;28;20044;-85
2023/04/19 03:55:31;;;;;;;5.43;2.47;;;;;;;;;;5074388;28;20028;-86
2023/04/19 03:57:56;;;;;;;2.47;2.28;;;;;;;;;;5055669;28;20487;-87
2023/04/19 04:00:22;;;;;;;2.55;2.33;;;;;;;;;;5073937;28;20116;-85
2023/04/19 04:02:47;;;;;;;2.92;2.38;;;;;;;;;;5056017;28;20107;-86
2023/04/19 04:05:14;;;;;;;2.83;2.47;;;;;;;;;;5022575;28;20041;-86
2023/04/19 04:07:39;;;;;;;2.60;2.40;;;;;;;;;;5055997;28;20395;-83
2023/04/19 04:10:05;;;;;;;2.40;2.10;;;;;;;;;;5074784;28;20059;-86
2023/04/19 04:12:31;;;;;;;3.47;2.45;;;;;;;;;;5056162;28;20043;-86
2023/04/19 04:14:56;;;;;;;3.33;2.67;;;;;;;;;;5056212;28;20024;-85
2023/04/19 04:17:23;;;;;;;2.45;2.17;;;;;;;;;;5056615;28;20033;-84
2023/04/19 04:19:48;;;;;;;6.40;2.45;;;;;;;;;;5023372;28;20028;-85
2023/04/19 04:22:15;;;;;;;3.05;2.30;;;;;;;;;;5074189;28;20035;-85
2023/04/19 04:24:41;;;;;;;3.08;2.10;;;;;;;;;;5056320;28;20028;-85
2023/04/19 04:27:10;;;;;;;5.25;2.30;;;;;;;;;;5073810;28;20024;-84
2023/04/19 04:29:36;;;;;;;4.55;2.13;;;;;;;;;;5040035;28;20367;-85
2023/04/19 04:32:04;;;;;;;3.35;2.30;;;;;;;;;;5039445;28;20479;-84
2023/04/19 04:34:31;;;;;;;5.53;2.05;;;;;;;;;;5055944;28;20118;-86
2023/04/19 04:36:57;;;;;;;3.90;2.50;;;;;;;;;;5055034;28;20115;-83
2023/04/19 04:39:22;;;;;;;6.97;2.80;;;;;;;;;;5072922;28;20052;-81
2023/04/19 04:41:48;;;;;;;14.23;5.55;;;;;;;;;;5073026;28;20024;-84
2023/04/19 04:44:14;;;;;;;12.55;5.30;;;;;;;;;;5038678;28;20036;-87
2023/04/19 04:46:39;;;;;;;11.20;4.15;;;;;;;;;;5038354;28;20123;-86
2023/04/19 04:49:06;;;;;;;11.07;4.32;;;;;;;;;;5055247;28;20111;-86
2023/04/19 04:51:31;;;;;;;11.35;4.65;;;;;;;;;;5072921;28;20032;-85
2023/04/19 04:53:57;;;;;;;9.95;4.20;;;;;;;;;;5055007;28;20391;-84
2023/04/19 04:56:22;;;;;;;8.52;4.30;;;;;;;;;;5038200;28;20028;-86
2023/04/19 04:58:48;;;;;;;9.73;3.95;;;;;;;;;;5072711;28;20230;-83
2023/04/19 05:01:13;;;;;;;8.75;3.58;;;;;;;;;;5038140;28;20056;-84
2023/04/19 05:03:39;;;;;;;8.57;4.72;;;;;;;;;;5072638;28;20035;-83
2023/04/19 05:06:05;;;;;;;11.13;3.97;;;;;;;;;;5054377;28;20025;-82
2023/04/19 05:08:30;;;;;;;13.93;4.10;;;;;;;;;;5054654;28;20043;-83
2023/04/19 05:10:55;;;;;;;17.85;5.40;;;;;;;;;;5076294;28;20047;-81
2023/04/19 05:13:21;;;;;;;19.05;4.47;;;;;;;;;;5076310;28;20025;-84
2023/04/19 05:15:46;;;;;;;20.95;5.15;;;;;;;;;;5025865;28;20079;-85
2023/04/19 05:18:11;;;;;;;12.73;5.22;;;;;;;;;;5077824;28;20103;-84
2023/04/19 05:20:37;;;;;;;15.40;5.28;;;;;;;;;;5077010;28;20368;-85
2023/04/19 05:23:03;;;;;;;13.68;5.10;;;;;;;;;;5048491;28;20024;-89
2023/04/19 05:25:28;;;;;;;9.30;4.45;;;;;;;;;;5044675;28;20036;-87
2023/04/19 05:27:54;;;;;;;11.70;4.80;;;;;;;;;;5060168;28;20043;-89
2023/04/19 05:30:20;;;;;;;11.43;4.43;;;;;;;;;;5042599;28;20031;-86
2023/04/19 05:32:46;;;;;;;14.45;4.70;;;;;;;;;;5063021;28;20035;-82
2023/04/19 05:35:11;;;;;;;10.65;4.00;;;;;;;;;;5078928;28;20020;-81
2023/04/19 05:37:37;;;;;;;11.35;4.00;;;;;;;;;;5096587;28;20054;-82
2023/04/19 05:40:08;;;;;;;10.70;4.03;;;;;;;;;;5061984;28;20043;-86
2023/04/19 05:42:34;;;;;;;9.93;4.28;;;;;;;;;;5096913;28;20498;-85
2023/04/19 05:45:09;;;;;;;14.05;3.90;;;;;;;;;;5078949;28;20039;-86
2023/04/19 05:47:35;;;;;;;8.55;3.33;;;;;;;;;;5062211;28;20185;-82
2023/04/19 05:50:03;;;;;;;4.47;3.00;;;;;;;;;;5041905;28;20479;-82
2023/04/19 05:52:29;;;;;;;6.78;3.33;;;;;;;;;;5061309;28;20031;-81
2023/04/19 05:54:54;;;;;;;4.32;2.85;;;;;;;;;;5061604;28;20028;-84
2023/04/19 05:57:20;;;;;;;6.25;2.65;;;;;;;;;;5061864;28;20042;-85
2023/04/19 05:59:46;;;;;;;5.35;3.13;;;;;;;;;;5078458;28;20054;-84
2023/04/19 06:02:11;;;;;;;6.93;3.25;;;;;;;;;;5078478;28;20078;-84
2023/04/19 06:04:36;;;;;;;5.78;2.97;;;;;;;;;;5062140;28;20028;-82
2023/04/19 06:07:02;;;;;;;4.75;2.88;;;;;;;;;;5096033;28;20035;-83
2023/04/19 06:09:27;;;;;;;5.10;3.08;;;;;;;;;;5057768;28;20060;-82
2023/04/19 06:11:55;;;;;;;5.00;2.80;;;;;;;;;;5074159;28;20047;-82
2023/04/19 06:14:21;;;;;;;3.78;2.70;;;;;;;;;;5075673;28;20403;-83
2023/04/19 06:16:47;;;;;;;4.97;2.75;;;;;;;;;;5057486;28;20032;-84
2023/04/19 06:19:12;;;;;;;4.18;2.90;;;;;;;;;;5073906;28;20048;-85
2023/04/19 06:21:38;;;;;;;11.20;3.17;;;;;;;;;;5078231;28;20039;-83
2023/04/19 06:24:05;;;;;;;6.15;2.80;;;;;;;;;;5077725;28;20036;-83
2023/04/19 06:26:31;;;;;;;4.90;2.45;;;;;;;;;;5077707;28;20039;-81
2023/04/19 06:28:56;;;;;;;4.88;2.70;;;;;;;;;;5077756;28;20032;-87
2023/04/19 06:31:22;;;;;;;4.88;2.55;;;;;;;;;;5045553;28;20134;-84
2023/04/19 06:33:47;;;;;;;3.17;2.38;;;;;;;;;;5054152;28;20431;-83
2023/04/19 06:36:13;;;;;;;4.88;2.80;;;;;;;;;;5066464;28;20091;-83
2023/04/19 06:38:40;;;;;;;9.82;2.70;;;;;;;;;;5075301;28;20024;-82
2023/04/19 06:41:05;;;;;;;5.63;2.90;;;;;;;;;;5075271;28;20043;-83
2023/04/19 06:43:31;;;;;;;3.70;2.25;;;;;;;;;;5057211;28;20020;-83
2023/04/19 06:45:59;;;;;;;4.80;2.60;;;;;;;;;;5075124;28;20031;-81
2023/04/19 06:48:26;;;;;;;5.70;2.65;;;;;;;;;;5057215;28;20055;-82
2023/04/19 06:50:52;;;;;;;4.03;2.60;;;;;;;;;;5057307;28;20020;-80
2023/04/19 06:53:17;;;;;;;4.90;2.00;;;;;;;;;;5057250;28;20535;-82
2023/04/19 06:55:43;;;;;;;5.53;2.70;;;;;;;;;;5057010;28;20144;-81
2023/04/19 06:58:09;;;;;;;4.65;2.50;;;;;;;;;;5056914;28;20090;-81
2023/04/19 07:00:35;;;;;;;4.88;2.10;;;;;;;;;;5057254;28;20399;-82
2023/04/19 07:03:02;;;;;;;4.05;2.28;;;;;;;;;;5020538;28;20029;-81
2023/04/19 07:05:29;;;;;;;3.75;2.35;;;;;;;;;;5022655;28;20488;-80
2023/04/19 07:07:55;;;;;;;5.07;2.45;;;;;;;;;;5056350;28;20431;-81
2023/04/19 07:10:20;;;;;;;3.42;2.10;;;;;;;;;;5072506;28;20064;-80
2023/04/19 07:12:46;;;;;;;2.45;2.03;;;;;;;;;;5074330;28;20387;-79
2023/04/19 07:15:11;;;;;;;3.03;2.25;;;;;;;;;;5074346;28;20494;-80
2023/04/19 07:17:37;;;;;;;2.92;1.98;;;;;;;;;;5065935;28;20024;-81
2023/04/19 07:20:05;;;;;;;2.50;2.00;;;;;;;;;;5055816;28;20028;-82
2023/04/19 07:22:30;;;;;;;3.05;2.13;;;;;;;;;;5059507;28;20059;-81
2023/04/19 07:24:56;;;;;;;4.40;1.83;;;;;;;;;;5060776;28;20501;-83
2023/04/19 07:27:21;;;;;;;2.67;1.98;;;;;;;;;;5062476;28;20040;-81
2023/04/19 07:29:47;;;;;;;3.35;1.83;;;;;;;;;;5074137;28;20438;-83
2023/04/19 07:32:15;;;;;;;2.88;2.20;;;;;;;;;;5054528;28;20107;-84
2023/04/19 07:34:42;;;;;;;3.58;2.38;;;;;;;;;;5060159;28;20027;-82
2023/04/19 07:37:07;;;;;;;1.98;1.77;;;;;;;;;;5076029;28;20032;-81
2023/04/19 07:39:33;;;;;;;2.40;1.70;;;;;;;;;;5076317;28;20035;-81
2023/04/19 07:42:00;;;;;;;2.45;1.90;;;;;;;;;;5094378;28;20027;-81
2023/04/19 07:44:26;;;;;;;2.38;1.65;;;;;;;;;;5060901;28;20063;-82
2023/04/19 07:46:51;;;;;;;3.50;2.00;;;;;;;;;;5060318;28;20032;-82
2023/04/19 07:49:17;;;;;;;2.47;1.70;;;;;;;;;;5060135;28;20028;-79
2023/04/19 07:51:42;;;;;;;2.45;1.67;;;;;;;;;;5076284;28;20040;-80
2023/04/19 07:54:08;;;;;;;1.90;1.80;;;;;;;;;;5095124;28;20030;-79
2023/04/19 07:56:33;;;;;;;2.33;1.80;;;;;;;;;;5076989;28;20032;-79
2023/04/19 07:58:59;;;;;;;3.08;1.98;;;;;;;;;;5059718;28;20031;-79
2023/04/19 08:01:24;;;;;;;5.20;1.73;;;;;;;;;;5094594;28;20028;-80
2023/04/19 08:03:50;;;;;;;5.55;2.00;;;;;;;;;;5095006;28;20441;-80
2023/04/19 08:06:16;;;;;;;3.60;1.95;;;;;;;;;;5060058;28;20028;-81
2023/04/19 08:08:42;;;;;;;3.05;1.73;;;;;;;;;;5062143;28;20077;-81
2023/04/19 08:11:07;;;;;;;1.98;1.55;;;;;;;;;;5077041;28;20024;-81
2023/04/19 08:13:33;;;;;;;2.20;1.67;;;;;;;;;;5093507;28;20035;-81
2023/04/19 08:15:58;;;;;;;2.05;1.85;;;;;;;;;;5093374;28;20059;-81
2023/04/19 08:18:23;;;;;;;2.28;1.55;;;;;;;;;;5094708;28;20032;-82
2023/04/19 08:20:49;;;;;;;2.25;1.60;;;;;;;;;;5064213;28;20039;-82
2023/04/19 08:23:14;;;;;;;2.17;1.38;;;;;;;;;;5041076;28;20098;-84
2023/04/19 08:25:40;;;;;;;2.67;1.50;;;;;;;;;;5079913;28;20048;-82
2023/04/19 08:28:06;;;;;;;2.22;1.27;;;;;;;;;;5073555;28;20119;-83
2023/04/19 08:30:31;;;;;;;2.78;1.48;;;;;;;;;;5078413;28;20024;-82
2023/04/19 08:32:57;;;;;;;2.17;1.70;;;;;;;;;;5090534;28;20036;-83
2023/04/19 08:35:24;;;;;;;2.72;1.50;;;;;;;;;;5076622;28;20035;-83
2023/04/19 08:37:49;;;;;;;2.20;1.58;;;;;;;;;;5094558;28;20031;-83
2023/04/19 08:40:15;;;;;;;1.83;1.40;;;;;;;;;;5076851;28;20039;-84
2023/04/19 08:42:41;;;;;;;1.80;1.30;;;;;;;;;;5073527;28;20029;-82
2023/04/19 08:45:07;;;;;;;1.30;1.20;;;;;;;;;;5057598;28;20028;-82
2023/04/19 08:47:33;;;;;;;1.30;1.20;;;;;;;;;;5066235;28;20372;-81
2023/04/19 08:50:04;;;;;;;2.25;1.20;;;;;;;;;;5077137;28;20032;-82
2023/04/19 08:52:32;;;;;;;3.20;1.50;;;;;;;;;;5060051;28;20501;-84
2023/04/19 08:54:57;;;;;;;1.48;1.38;;;;;;;;;;5062570;28;20107;-84
2023/04/19 08:57:23;;;;;;;1.30;1.20;;;;;;;;;;5060360;28;20470;-82
2023/04/19 08:59:54;;;;;;;1.77;1.30;;;;;;;;;;5081060;28;20035;-81
2023/04/19 09:02:20;;;;;;;2.28;1.40;;;;;;;;;;5063319;28;20075;-81
2023/04/19 09:04:45;;;;;;;1.20;1.10;;;;;;;;;;5046768;28;20446;-81
2023/04/19 09:07:25;;;;;;;2.05;1.10;;;;;;;;;;5094526;28;20028;-81
2023/04/19 09:10:10;;;;;;;1.33;1.23;;;;;;;;;;5078535;28;20415;-81
2023/04/19 09:12:37;;;;;;;1.35;1.20;;;;;;;;;;5064083;28;20032;-81
2023/04/19 09:15:04;;;;;;;3.75;1.17;;;;;;;;;;5081350;28;20032;-81
2023/04/19 09:17:30;;;;;;;3.63;1.10;;;;;;;;;;5079872;28;20082;-81
2023/04/19 09:19:56;;;;;;;4.28;1.40;;;;;;;;;;5082294;28;20115;-81
2023/04/19 09:22:22;;;;;;;2.70;1.42;;;;;;;;;;5100450;28;20032;-80
2023/04/19 09:24:48;;;;;;;3.00;1.30;;;;;;;;;;5075688;28;20436;-80
2023/04/19 09:27:31;;;;;;;1.08;0.98;;;;;;;;;;5072125;28;20455;-82
2023/04/19 09:30:01;;;;;;;1.10;1.00;;;;;;;;;;5058390;28;20486;-81
2023/04/19 09:32:27;;;;;;;3.03;1.25;;;;;;;;;;5058302;28;20024;-82
2023/04/19 09:34:57;;;;;;;1.15;1.05;;;;;;;;;;5058447;28;20074;-82
2023/04/19 09:37:23;;;;;;;2.42;1.30;;;;;;;;;;5058314;28;20478;-81
2023/04/19 09:39:49;;;;;;;1.20;1.10;;;;;;;;;;5093486;28;20052;-82
2023/04/19 09:42:16;;;;;;;1.33;1.15;;;;;;;;;;5058143;28;20509;-81
2023/04/19 09:44:43;;;;;;;2.63;1.05;;;;;;;;;;5075301;28;20027;-81
2023/04/19 09:47:28;;;;;;;1.38;1.10;;;;;;;;;;5094059;28;20475;-83
2023/04/19 09:50:04;;;;;;;1.27;1.13;;;;;;;;;;5058672;28;20059;-82
2023/04/19 09:52:32;;;;;;;1.52;1.20;;;;;;;;;;5093627;28;20101;-82
2023/04/19 09:55:00;;;;;;;1.75;1.20;;;;;;;;;;5059106;28;20032;-82
2023/04/19 09:57:25;;;;;;;1.40;1.30;;;;;;;;;;5078364;28;20024;-82
2023/04/19 09:59:51;;;;;;;1.00;1.00;;;;;;;;;;5096476;28;20474;-83
2023/04/19 10:02:17;;;;;;;1.90;1.08;;;;;;;;;;5079517;28;20051;-82
2023/04/19 10:04:42;;;;;;;1.58;1.23;;;;;;;;;;5078279;28;20046;-82
2023/04/19 10:07:07;;;;;;;1.05;1.00;;;;;;;;;;5061437;28;20028;-82
2023/04/19 10:09:34;;;;;;;2.13;1.15;;;;;;;;;;5078472;28;20051;-82
2023/04/19 10:12:00;;;;;;;1.23;1.00;;;;;;;;;;5065189;28;20038;-82
2023/04/19 10:14:27;;;;;;;1.40;1.10;;;;;;;;;;5100284;28;20027;-82
2023/04/19 10:16:55;;;;;;;1.17;1.08;;;;;;;;;;5062355;28;20039;-81
2023/04/19 10:19:21;;;;;;;1.40;1.10;;;;;;;;;;5079509;28;20115;-81
2023/04/19 10:21:48;;;;;;;4.75;1.15;;;;;;;;;;5046192;28;20455;-84
2023/04/19 10:24:14;;;;;;;0.80;0.80;;;;;;;;;;5063638;28;20024;-85
2023/04/19 10:27:02;;;;;;;1.00;1.00;;;;;;;;;;5081718;28;20422;-83
2023/04/19 10:29:54;;;;;;;1.30;1.00;;;;;;;;;;5078858;28;20471;-82
2023/04/19 10:32:23;;;;;;;1.20;1.10;;;;;;;;;;5084469;28;20055;-82
2023/04/19 10:34:51;;;;;;;2.15;1.00;;;;;;;;;;5061240;28;20028;-80
2023/04/19 10:37:21;;;;;;;2.05;1.30;;;;;;;;;;5078294;28;20111;-81
2023/04/19 10:39:47;;;;;;;3.92;1.08;;;;;;;;;;5078364;28;20023;-81
2023/04/19 10:42:12;;;;;;;0.95;0.88;;;;;;;;;;5095776;28;20020;-81
2023/04/19 10:44:37;;;;;;;1.02;0.90;;;;;;;;;;5077486;28;20036;-81
2023/04/19 10:47:04;;;;;;;1.17;0.90;;;;;;;;;;5044126;28;20224;-81
2023/04/19 10:49:30;;;;;;;0.93;0.88;;;;;;;;;;5077917;28;20482;-81
2023/04/19 10:51:58;;;;;;;1.17;1.02;;;;;;;;;;5060832;28;20036;-81
2023/04/19 10:54:37;;;;;;;1.83;1.20;;;;;;;;;;5078011;28;20024;-81
2023/04/19 10:57:07;;;;;;;1.10;1.00;;;;;;;;;;5095555;28;20030;-81
2023/04/19 10:59:37;;;;;;;1.40;1.10;;;;;;;;;;5060564;28;20024;-82
2023/04/19 11:02:23;;;;;;;1.23;1.05;;;;;;;;;;5060511;28;20035;-82
2023/04/19 11:04:51;;;;;;;0.80;0.80;;;;;;;;;;5077060;28;20451;-83
2023/04/19 11:07:19;;;;;;;3.28;1.05;;;;;;;;;;5077025;28;20024;-84
2023/04/19 11:09:45;;;;;;;1.85;0.90;;;;;;;;;;5095237;28;20048;-86
2023/04/19 11:12:15;;;;;;;3.03;1.02;;;;;;;;;;5043995;28;20085;-84
2023/04/19 11:14:44;;;;;;;2.05;1.17;;;;;;;;;;5077135;28;20024;-85
2023/04/19 11:17:16;;;;;;;1.45;1.15;;;;;;;;;;5077378;28;20432;-82
2023/04/19 11:19:43;;;;;;;1.10;1.00;;;;;;;;;;5077395;28;20073;-82
2023/04/19 11:22:09;;;;;;;1.52;0.90;;;;;;;;;;5061420;28;20028;-86
2023/04/19 11:24:34;;;;;;;1.73;1.10;;;;;;;;;;5060583;28;20055;-86
2023/04/19 11:27:00;;;;;;;1.20;1.10;;;;;;;;;;5060184;28;20040;-83
2023/04/19 11:29:25;;;;;;;2.90;1.20;;;;;;;;;;5060432;28;20135;-85
2023/04/19 11:31:51;;;;;;;2.47;1.15;;;;;;;;;;5095625;28;20028;-85
2023/04/19 11:34:18;;;;;;;1.77;1.20;;;;;;;;;;5077056;28;20024;-87
2023/04/19 11:36:50;;;;;;;3.30;0.98;;;;;;;;;;5077340;28;20024;-84
2023/04/19 11:39:16;;;;;;;5.10;1.30;;;;;;;;;;5076486;28;20020;-82
2023/04/19 11:41:41;;;;;;;2.55;1.23;;;;;;;;;;5076223;28;20031;-83
2023/04/19 11:44:15;;;;;;;2.28;1.10;;;;;;;;;;5076350;28;20077;-82
2023/04/19 11:46:41;;;;;;;2.35;1.30;;;;;;;;;;5076464;28;20158;-83
2023/04/19 11:49:06;;;;;;;7.47;1.63;;;;;;;;;;5094454;28;20494;-83
2023/04/19 11:51:32;;;;;;;1.33;1.20;;;;;;;;;;5059428;28;20070;-83
2023/04/19 11:53:57;;;;;;;8.45;1.40;;;;;;;;;;5076058;28;20028;-83
2023/04/19 11:56:23;;;;;;;1.52;1.05;;;;;;;;;;5076607;28;20475;-83
2023/04/19 11:58:48;;;;;;;1.30;1.20;;;;;;;;;;5076170;28;20032;-83
2023/04/19 12:01:15;;;;;;;2.00;1.17;;;;;;;;;;5059514;28;20043;-83
2023/04/19 12:03:49;;;;;;;2.20;1.27;;;;;;;;;;5076341;28;20031;-83
2023/04/19 12:06:33;;;;;;;1.80;1.20;;;;;;;;;;5075995;28;20027;-83
2023/04/19 12:08:58;;;;;;;4.50;1.50;;;;;;;;;;5093874;28;20043;-82
2023/04/19 12:11:25;;;;;;;2.25;1.15;;;;;;;;;;5076196;28;20036;-84
2023/04/19 12:14:10;;;;;;;2.40;1.55;;;;;;;;;;5076502;28;20081;-82
2023/04/19 12:16:35;;;;;;;1.10;1.00;;;;;;;;;;5060391;28;20483;-81
2023/04/19 12:19:13;;;;;;;2.90;1.13;;;;;;;;;;5075891;28;20028;-82
2023/04/19 12:21:39;;;;;;;1.83;1.33;;;;;;;;;;5075923;28;20459;-82
2023/04/19 12:24:05;;;;;;;1.55;1.38;;;;;;;;;;5075087;28;20085;-81
2023/04/19 12:26:30;;;;;;;2.15;1.60;;;;;;;;;;5093406;28;20028;-82
2023/04/19 12:28:57;;;;;;;1.65;1.33;;;;;;;;;;5058611;28;20075;-82
2023/04/19 12:31:23;;;;;;;1.33;1.23;;;;;;;;;;5075288;28;20099;-82
2023/04/19 12:33:49;;;;;;;2.55;1.52;;;;;;;;;;5058238;28;20589;-83
2023/04/19 12:36:14;;;;;;;1.58;1.20;;;;;;;;;;5058803;28;20031;-82
2023/04/19 12:38:40;;;;;;;1.33;1.20;;;;;;;;;;5042894;28;20123;-83
2023/04/19 12:41:05;;;;;;;1.77;1.25;;;;;;;;;;5075668;28;20035;-83
2023/04/19 12:43:31;;;;;;;2.20;1.45;;;;;;;;;;5093944;28;20483;-83
2023/04/19 12:45:58;;;;;;;3.08;1.50;;;;;;;;;;5075826;28;20109;-84
2023/04/19 12:48:24;;;;;;;1.42;0.90;;;;;;;;;;5041958;28;20024;-82
2023/04/19 12:50:49;;;;;;;2.10;1.15;;;;;;;;;;5021803;28;20386;-81
2023/04/19 12:53:15;;;;;;;1.25;1.15;;;;;;;;;;5038503;28;20040;-82
2023/04/19 12:55:40;;;;;;;1.30;1.02;;;;;;;;;;5038525;28;20040;-81
2023/04/19 12:58:06;;;;;;;5.05;1.45;;;;;;;;;;5054893;28;20094;-81
2023/04/19 13:00:31;;;;;;;2.63;1.38;;;;;;;;;;5072606;28;20470;-81
2023/04/19 13:02:57;;;;;;;1.77;1.20;;;;;;;;;;5055205;28;20056;-80
2023/04/19 13:05:22;;;;;;;1.35;1.20;;;;;;;;;;5072744;28;20055;-80
2023/04/19 13:07:47;;;;;;;5.00;1.20;;;;;;;;;;5054984;28;20054;-80
2023/04/19 13:10:13;;;;;;;3.80;1.33;;;;;;;;;;5054646;28;20050;-82
2023/04/19 13:12:38;;;;;;;2.15;1.30;;;;;;;;;;5072601;28;20038;-82
2023/04/19 13:15:04;;;;;;;2.00;1.10;;;;;;;;;;5054777;28;20059;-82
2023/04/19 13:17:30;;;;;;;2.30;1.25;;;;;;;;;;5037218;28;20044;-82
2023/04/19 13:19:55;;;;;;;1.27;1.10;;;;;;;;;;5053802;28;20078;-81
2023/04/19 13:22:21;;;;;;;2.72;1.10;;;;;;;;;;5038062;28;20398;-82
2023/04/19 13:24:46;;;;;;;1.15;1.00;;;;;;;;;;5072624;28;20151;-81
2023/04/19 13:27:11;;;;;;;1.25;1.10;;;;;;;;;;5054464;28;20111;-82
2023/04/19 13:29:37;;;;;;;3.13;1.02;;;;;;;;;;5072947;28;20112;-81
2023/04/19 13:32:06;;;;;;;1.63;1.08;;;;;;;;;;5058320;28;20039;-82
2023/04/19 13:34:31;;;;;;;1.20;1.10;;;;;;;;;;5058195;28;20035;-82
2023/04/19 13:36:57;;;;;;;2.55;1.10;;;;;;;;;;5058454;28;20032;-81
2023/04/19 13:39:22;;;;;;;2.15;1.27;;;;;;;;;;5076239;28;20522;-82
2023/04/19 13:41:48;;;;;;;1.15;1.05;;;;;;;;;;5058153;28;20064;-82
2023/04/19 13:44:13;;;;;;;1.27;1.05;;;;;;;;;;5041454;28;20113;-81
2023/04/19 13:46:38;;;;;;;1.95;1.13;;;;;;;;;;5058010;28;20107;-81
2023/04/19 13:49:04;;;;;;;1.00;1.00;;;;;;;;;;5039422;28;20123;-82
2023/04/19 13:51:30;;;;;;;1.00;1.00;;;;;;;;;;5055798;28;20036;-81
2023/04/19 13:53:55;;;;;;;1.42;1.13;;;;;;;;;;5054654;28;20029;-82
2023/04/19 13:56:21;;;;;;;3.70;1.02;;;;;;;;;;5055647;28;20052;-81
2023/04/19 13:58:46;;;;;;;2.40;1.08;;;;;;;;;;5042580;28;20480;-79
2023/04/19 14:01:12;;;;;;;1.08;1.00;;;;;;;;;;5075697;28;20025;-80
2023/04/19 14:03:37;;;;;;;1.10;1.10;;;;;;;;;;5057811;28;20059;-83
2023/04/19 14:06:03;;;;;;;1.55;1.10;;;;;;;;;;5057596;28;20039;-83
2023/04/19 14:08:28;;;;;;;1.58;1.20;;;;;;;;;;5040986;28;20555;-82
2023/04/19 14:10:54;;;;;;;1.48;1.08;;;;;;;;;;5075388;28;20389;-82
2023/04/19 14:13:19;;;;;;;1.10;1.00;;;;;;;;;;5057249;28;20039;-81
2023/04/19 14:15:45;;;;;;;1.60;1.00;;;;;;;;;;5057480;28;20090;-82
2023/04/19 14:18:10;;;;;;;2.00;1.30;;;;;;;;;;5056143;28;20039;-82
2023/04/19 14:20:36;;;;;;;1.23;1.15;;;;;;;;;;5076076;28;20032;-82
2023/04/19 14:23:01;;;;;;;1.65;1.10;;;;;;;;;;5041267;28;20115;-82
2023/04/19 14:25:27;;;;;;;1.35;1.17;;;;;;;;;;5057286;28;20076;-81
2023/04/19 14:27:52;;;;;;;2.05;1.33;;;;;;;;;;5075304;28;20150;-82
2023/04/19 14:30:19;;;;;;;1.83;1.10;;;;;;;;;;5075306;28;20034;-81
2023/04/19 14:32:45;;;;;;;2.13;1.10;;;;;;;;;;5040551;28;20032;-81
2023/04/19 14:35:10;;;;;;;1.13;1.05;;;;;;;;;;5057584;28;20056;-82
2023/04/19 14:37:36;;;;;;;1.98;1.27;;;;;;;;;;5040591;28;20034;-83
2023/04/19 14:40:02;;;;;;;1.20;1.10;;;;;;;;;;5074739;28;20044;-82